Time;durP1;ratioP1;P1;durP2;ratioP2;P2;SDS_P1;SDS_P2;PMS_P1;PMS_P2;Temp;Humidity;BMP_temperature;BMP_pressure;BME280_temperature;BME280_humidity;BME280_pressure;Samples;Min_cycle;Max_cycle;Signal;HPM_P1;HPM_P2
2022/01/24 00:02:02;;;;;;;0.10;0.10;;;4.80;99.90;226.50;231333.00;;;;4988062;28;20262;-72
2022/01/24 00:04:31;;;;;;;0.10;0.10;;;4.80;99.90;226.50;231333.00;;;;4989388;28;20224;-72
2022/01/24 00:06:59;;;;;;;0.10;0.10;;;4.80;99.90;226.50;231333.00;;;;4987875;28;20208;-72
2022/01/24 00:09:27;;;;;;;0.10;0.10;;;4.70;99.90;226.50;231333.00;;;;4990810;28;20220;-74
2022/01/24 00:12:04;;;;;;;0.10;0.10;;;4.70;99.90;226.50;231333.00;;;;4989836;28;20251;-73
2022/01/24 00:17:32;;;;;;;0.10;0.10;;;4.80;99.90;226.50;231333.00;;;;5003329;28;20196;-73
2022/01/24 00:28:24;;;;;;;0.10;0.10;;;4.70;99.90;226.50;231333.00;;;;5013764;28;20224;-72
2022/01/24 00:30:55;;;;;;;0.10;0.10;;;4.80;99.90;226.50;231333.00;;;;5010755;28;20196;-72
2022/01/24 00:33:24;;;;;;;0.10;0.10;;;4.80;99.90;226.50;231333.00;;;;4997126;28;20579;-72
2022/01/24 00:35:52;;;;;;;0.10;0.10;;;4.80;99.90;226.50;231333.00;;;;4990777;28;20202;-72
2022/01/24 00:38:20;;;;;;;0.10;0.10;;;4.80;99.90;226.50;231333.00;;;;5005283;28;20204;-71
2022/01/24 00:40:50;;;;;;;0.10;0.10;;;4.80;99.90;226.50;231333.00;;;;4988848;28;20952;-72
2022/01/24 00:43:26;;;;;;;0.10;0.10;;;4.80;99.90;226.50;231333.00;;;;4989159;28;20231;-72
2022/01/24 00:46:01;;;;;;;0.10;0.10;;;4.80;99.90;226.50;231333.00;;;;4989203;28;20258;-73
2022/01/24 00:48:58;;;;;;;0.10;0.10;;;4.80;99.90;226.50;231333.00;;;;4989806;28;20735;-73
2022/01/24 00:56:58;;;;;;;0.10;0.10;;;4.90;99.90;226.50;231333.00;;;;4985269;28;20291;-73
2022/01/24 00:59:26;;;;;;;0.10;0.10;;;5.00;99.90;226.50;231333.00;;;;4990032;28;20196;-72
2022/01/24 01:01:55;;;;;;;0.10;0.10;;;4.90;99.90;226.50;231333.00;;;;4989216;28;20230;-73
2022/01/24 01:04:30;;;;;;;0.08;0.08;;;4.90;99.90;226.50;231333.00;;;;4989192;28;21591;-74
2022/01/24 01:07:04;;;;;;;0.10;0.10;;;4.90;99.90;226.50;231333.00;;;;5004212;28;20255;-72
2022/01/24 01:18:14;;;;;;;0.10;0.10;;;4.90;99.90;226.50;231333.00;;;;4988762;28;20535;-73
2022/01/24 01:21:07;;;;;;;0.10;0.10;;;4.90;99.90;226.50;231333.00;;;;4984983;28;20596;-73
2022/01/24 01:23:39;;;;;;;0.10;0.10;;;5.00;99.90;226.50;231333.00;;;;4989193;28;20220;-73
2022/01/24 01:26:12;;;;;;;0.10;0.10;;;5.00;99.90;226.50;231333.00;;;;4992744;28;20926;-73
2022/01/24 01:28:45;;;;;;;0.10;0.10;;;4.90;99.90;226.50;231333.00;;;;4996957;28;20215;-73
2022/01/24 01:31:25;;;;;;;0.10;0.10;;;5.00;99.90;226.50;231333.00;;;;4992597;28;20197;-73
2022/01/24 01:34:05;;;;;;;0.10;0.10;;;4.90;99.90;226.50;231333.00;;;;5003146;28;20721;-73
2022/01/24 01:37:07;;;;;;;0.10;0.10;;;4.90;99.90;226.50;231333.00;;;;4989628;28;20480;-73
2022/01/24 01:39:54;;;;;;;0.10;0.10;;;4.90;99.90;226.50;231333.00;;;;4988769;28;20188;-72
2022/01/24 01:54:03;;;;;;;0.10;0.10;;;4.80;99.90;226.50;231333.00;;;;4988577;28;20212;-73
2022/01/24 01:56:34;;;;;;;0.10;0.10;;;4.80;99.90;226.50;231333.00;;;;4988224;28;20192;-72
2022/01/24 01:59:04;;;;;;;0.10;0.10;;;4.80;99.90;226.50;231333.00;;;;4988500;28;20290;-73
2022/01/24 02:01:35;;;;;;;0.10;0.10;;;4.80;99.90;226.50;231333.00;;;;4988476;28;20211;-72
2022/01/24 02:04:05;;;;;;;0.10;0.10;;;4.70;99.90;226.50;231333.00;;;;4988384;28;20220;-72
2022/01/24 02:06:38;;;;;;;0.10;0.10;;;4.70;99.90;226.50;231333.00;;;;4988343;28;20193;-73
2022/01/24 02:09:12;;;;;;;0.10;0.10;;;4.70;99.90;226.50;231333.00;;;;4987529;28;20216;-72
2022/01/24 02:11:42;;;;;;;0.10;0.10;;;4.70;99.90;226.50;231333.00;;;;4989031;28;20200;-72
2022/01/24 02:14:17;;;;;;;0.10;0.10;;;4.70;99.90;226.50;231333.00;;;;4987274;28;20224;-73
2022/01/24 02:16:52;;;;;;;0.10;0.10;;;4.70;99.90;226.50;231333.00;;;;4987019;28;20203;-73
2022/01/24 02:19:32;;;;;;;0.10;0.10;;;4.70;99.90;226.50;231333.00;;;;4988070;28;20196;-73
2022/01/24 02:22:38;;;;;;;0.10;0.10;;;4.70;99.90;226.50;231333.00;;;;4987796;28;20204;-73
2022/01/24 02:25:01;;;;;;;0.10;0.10;;;4.70;99.90;226.50;231333.00;;;;4988059;28;20343;-72
2022/01/24 02:27:42;;;;;;;0.10;0.10;;;4.70;99.90;226.50;231333.00;;;;4986855;28;20208;-72
2022/01/24 02:30:25;;;;;;;0.10;0.10;;;4.70;99.90;226.50;231333.00;;;;5002691;28;20236;-73
2022/01/24 02:32:56;;;;;;;0.10;0.10;;;4.70;99.90;226.50;231333.00;;;;4987738;28;20693;-73
2022/01/24 02:35:26;;;;;;;0.10;0.10;;;4.80;99.90;226.50;231333.00;;;;4986961;28;20197;-73
2022/01/24 02:38:02;;;;;;;0.10;0.10;;;4.80;99.90;226.50;231333.00;;;;5026273;23;20631;-73
2022/01/24 02:40:32;;;;;;;0.10;0.10;;;4.80;99.90;226.50;231333.00;;;;4994120;28;20203;-74
2022/01/24 02:48:22;;;;;;;0.10;0.10;;;4.80;99.90;226.50;231333.00;;;;4992802;28;20654;-73
2022/01/24 02:48:53;;;;;;;0.10;0.10;;;4.80;99.90;226.50;231333.00;;;;5006948;28;20201;-74
2022/01/24 02:51:39;;;;;;;0.10;0.10;;;4.80;99.90;226.50;231333.00;;;;4990989;28;20212;-73
2022/01/24 02:54:21;;;;;;;0.10;0.10;;;4.80;99.90;226.50;231333.00;;;;4989759;28;20197;-73
2022/01/24 02:56:52;;;;;;;0.10;0.10;;;4.80;99.90;226.50;231333.00;;;;4994796;28;20231;-73
2022/01/24 02:59:22;;;;;;;0.10;0.10;;;4.70;99.90;226.50;231333.00;;;;5001129;28;20224;-74
2022/01/24 03:01:53;;;;;;;0.10;0.10;;;4.70;99.90;226.50;231333.00;;;;4991344;28;20192;-73
2022/01/24 03:04:24;;;;;;;0.10;0.10;;;4.70;99.90;226.50;231333.00;;;;4991052;28;20272;-74
2022/01/24 03:06:55;;;;;;;0.10;0.10;;;4.70;99.90;226.50;231333.00;;;;4991004;28;20217;-75
2022/01/24 03:09:26;;;;;;;0.10;0.10;;;4.80;99.90;226.50;231333.00;;;;4991881;28;20196;-74
2022/01/24 03:12:07;;;;;;;0.10;0.10;;;4.80;99.90;226.50;231333.00;;;;4990025;28;20219;-77
2022/01/24 03:14:39;;;;;;;0.10;0.10;;;4.80;99.90;226.50;231333.00;;;;4991212;28;20188;-75
2022/01/24 03:17:10;;;;;;;0.10;0.10;;;4.80;99.90;226.50;231333.00;;;;4990523;28;20220;-77
2022/01/24 03:19:40;;;;;;;0.10;0.10;;;4.90;99.90;226.50;231333.00;;;;4991292;28;20740;-77
2022/01/24 03:22:11;;;;;;;0.10;0.10;;;4.90;99.90;226.50;231333.00;;;;4990889;28;20204;-77
2022/01/24 03:24:45;;;;;;;0.10;0.10;;;4.90;99.90;226.50;231333.00;;;;4990959;28;20569;-77
2022/01/24 03:27:15;;;;;;;0.03;0.03;;;4.90;99.90;226.50;231333.00;;;;4991053;28;20224;-77
2022/01/24 03:29:46;;;;;;;0.10;0.10;;;4.90;99.90;226.50;231333.00;;;;4990522;28;20685;-77
2022/01/24 03:32:16;;;;;;;0.10;0.10;;;4.90;99.90;226.50;231333.00;;;;4991135;28;20196;-76
2022/01/24 03:34:46;;;;;;;0.10;0.10;;;4.90;99.90;226.50;231333.00;;;;4991533;28;20197;-75
2022/01/24 03:37:17;;;;;;;0.10;0.10;;;4.90;99.90;226.50;231333.00;;;;4996953;28;20247;-73
2022/01/24 03:39:48;;;;;;;0.10;0.10;;;4.80;99.90;226.50;231333.00;;;;4988529;28;20326;-74
2022/01/24 03:42:18;;;;;;;0.10;0.10;;;4.90;99.90;226.50;231333.00;;;;4990799;28;20592;-75
2022/01/24 03:44:55;;;;;;;0.10;0.10;;;4.80;99.90;226.50;231333.00;;;;4990636;28;20259;-73
2022/01/24 03:47:42;;;;;;;0.10;0.10;;;4.80;99.90;226.50;231333.00;;;;4988884;28;20220;-73
2022/01/24 03:50:17;;;;;;;0.10;0.10;;;4.80;99.90;226.50;231333.00;;;;4990146;28;20224;-73
2022/01/24 03:52:47;;;;;;;0.10;0.10;;;4.80;99.90;226.50;231333.00;;;;4991014;28;20207;-73
2022/01/24 03:55:19;;;;;;;0.10;0.10;;;4.70;99.90;226.50;231333.00;;;;5006370;28;20596;-73
2022/01/24 03:57:49;;;;;;;0.10;0.10;;;4.70;99.90;226.50;231333.00;;;;4990708;28;20593;-73
2022/01/24 04:00:19;;;;;;;0.10;0.10;;;4.70;99.90;226.50;231333.00;;;;4989892;28;20797;-74
2022/01/24 04:02:50;;;;;;;0.10;0.10;;;4.80;99.90;226.50;231333.00;;;;4990049;28;20212;-73
2022/01/24 04:05:20;;;;;;;0.10;0.10;;;4.70;99.90;226.50;231333.00;;;;4989906;28;20201;-73
2022/01/24 04:07:50;;;;;;;0.10;0.10;;;4.70;99.90;226.50;231333.00;;;;4989791;28;20585;-73
2022/01/24 04:10:22;;;;;;;0.10;0.10;;;4.70;99.90;226.50;231333.00;;;;4989851;28;20562;-73
2022/01/24 04:12:53;;;;;;;0.10;0.10;;;4.80;99.90;226.50;231333.00;;;;4989765;28;20231;-73
2022/01/24 04:15:43;;;;;;;0.10;0.10;;;4.70;99.90;226.50;231333.00;;;;5005524;28;20292;-73
2022/01/24 04:18:33;;;;;;;0.10;0.10;;;4.70;99.90;226.50;231333.00;;;;4989832;28;20205;-73
2022/01/24 04:21:26;;;;;;;0.10;0.10;;;4.70;99.90;226.50;231333.00;;;;4988619;28;20588;-73
2022/01/24 04:24:04;;;;;;;0.10;0.10;;;4.70;99.90;226.50;231333.00;;;;4990218;28;20193;-73
2022/01/24 04:26:37;;;;;;;0.10;0.10;;;4.70;99.90;226.50;231333.00;;;;4988394;28;20784;-74
2022/01/24 04:29:09;;;;;;;0.10;0.10;;;4.70;99.90;226.50;231333.00;;;;4990084;28;20206;-74
2022/01/24 04:31:39;;;;;;;0.10;0.10;;;4.80;99.90;226.50;231333.00;;;;4988946;28;20705;-73
2022/01/24 04:34:09;;;;;;;0.10;0.10;;;4.70;99.90;226.50;231333.00;;;;4990982;28;20206;-74
2022/01/24 04:36:40;;;;;;;0.10;0.10;;;4.80;99.90;226.50;231333.00;;;;4989382;28;20232;-74
2022/01/24 04:39:10;;;;;;;0.10;0.10;;;4.80;99.90;226.50;231333.00;;;;4987249;28;20208;-74
2022/01/24 04:41:45;;;;;;;0.10;0.10;;;4.80;99.90;226.50;231333.00;;;;4986790;28;20196;-77
2022/01/24 04:44:41;;;;;;;0.10;0.10;;;4.80;99.90;226.50;231333.00;;;;4989808;28;20212;-77
2022/01/24 04:47:18;;;;;;;0.10;0.10;;;4.90;99.90;226.50;231333.00;;;;4988598;28;20613;-77
2022/01/24 04:52:58;;;;;;;0.10;0.10;;;4.90;99.90;226.50;231333.00;;;;4924484;29;20289;-74
2022/01/24 04:55:29;;;;;;;0.10;0.10;;;4.80;99.90;226.50;231333.00;;;;4926212;29;20282;-74
2022/01/24 04:58:00;;;;;;;0.10;0.10;;;4.80;99.90;226.50;231333.00;;;;4959773;28;20231;-77
2022/01/24 05:00:31;;;;;;;0.10;0.10;;;4.90;99.90;226.50;231333.00;;;;4987423;28;20200;-77
2022/01/24 05:03:01;;;;;;;0.10;0.10;;;4.90;99.90;226.50;231333.00;;;;4987544;28;20189;-76
2022/01/24 05:05:32;;;;;;;0.10;0.10;;;5.00;99.90;226.50;231333.00;;;;4989654;28;20203;-77
2022/01/24 05:08:04;;;;;;;0.10;0.10;;;5.00;99.90;226.50;231333.00;;;;4988375;28;20300;-76
2022/01/24 05:10:39;;;;;;;0.10;0.10;;;5.00;99.90;226.50;231333.00;;;;4989688;28;20184;-77
2022/01/24 05:23:24;;;;;;;0.10;0.10;;;4.90;99.90;226.50;231333.00;;;;4991560;28;20216;-75
2022/01/24 05:24:31;;;;;;;0.10;0.10;;;4.80;99.90;226.50;231333.00;;;;4990741;28;20200;-77
2022/01/24 05:27:02;;;;;;;0.10;0.10;;;4.90;99.90;226.50;231333.00;;;;4993378;28;20219;-79
2022/01/24 05:29:39;;;;;;;0.10;0.10;;;5.00;99.90;226.50;231333.00;;;;4993386;28;20208;-78
2022/01/24 05:32:10;;;;;;;0.10;0.10;;;4.90;99.90;226.50;231333.00;;;;4990276;28;20238;-78
2022/01/24 05:34:40;;;;;;;0.10;0.10;;;4.90;99.90;226.50;231333.00;;;;4990572;28;20235;-75
2022/01/24 05:37:11;;;;;;;0.10;0.10;;;4.90;99.90;226.50;231333.00;;;;4991556;28;20227;-78
2022/01/24 05:39:41;;;;;;;0.10;0.10;;;4.90;99.90;226.50;231333.00;;;;4989561;28;20192;-76
2022/01/24 05:42:11;;;;;;;0.10;0.10;;;4.90;99.90;226.50;231333.00;;;;5017158;28;20223;-75
2022/01/24 05:44:43;;;;;;;0.10;0.10;;;4.80;99.90;226.50;231333.00;;;;5000228;28;20223;-75
2022/01/24 05:47:14;;;;;;;0.10;0.10;;;4.80;99.90;226.50;231333.00;;;;5000085;28;20235;-75
2022/01/24 05:49:45;;;;;;;0.10;0.10;;;4.90;99.90;226.50;231333.00;;;;5000037;28;20196;-75
2022/01/24 05:52:16;;;;;;;0.10;0.10;;;4.80;99.90;226.50;231333.00;;;;4989359;28;20227;-75
2022/01/24 05:54:47;;;;;;;0.10;0.10;;;4.70;99.90;226.50;231333.00;;;;4987969;28;20200;-75
2022/01/24 05:57:17;;;;;;;0.10;0.10;;;4.80;99.90;226.50;231333.00;;;;4987478;28;20231;-75
2022/01/24 05:59:49;;;;;;;0.10;0.10;;;4.80;99.90;226.50;231333.00;;;;5003918;28;20567;-76
2022/01/24 06:02:20;;;;;;;0.10;0.10;;;4.70;99.90;226.50;231333.00;;;;4988731;28;20192;-75
2022/01/24 06:04:50;;;;;;;0.10;0.10;;;4.70;99.90;226.50;231333.00;;;;4991820;28;20259;-75
2022/01/24 06:07:21;;;;;;;0.10;0.10;;;4.70;99.90;226.50;231333.00;;;;4994204;28;20220;-74
2022/01/24 06:09:51;;;;;;;0.10;0.10;;;4.80;99.90;226.50;231333.00;;;;4993169;28;20235;-74
2022/01/24 06:12:23;;;;;;;0.10;0.10;;;4.80;99.90;226.50;231333.00;;;;4990442;28;20582;-74
2022/01/24 06:14:54;;;;;;;0.10;0.10;;;4.80;99.90;226.50;231333.00;;;;4999153;28;20211;-74
2022/01/24 06:17:25;;;;;;;0.10;0.10;;;4.80;99.90;226.50;231333.00;;;;4998784;28;20220;-74
2022/01/24 06:19:55;;;;;;;0.10;0.10;;;4.80;99.90;226.50;231333.00;;;;4994738;28;20220;-73
2022/01/24 06:22:25;;;;;;;0.10;0.10;;;4.80;99.90;226.50;231333.00;;;;4990923;28;20243;-74
2022/01/24 06:24:55;;;;;;;0.10;0.10;;;4.90;99.90;226.50;231333.00;;;;4992827;28;20604;-74
2022/01/24 06:27:42;;;;;;;0.10;0.10;;;4.90;99.90;226.50;231333.00;;;;4992546;28;20224;-74
2022/01/24 06:30:15;;;;;;;0.10;0.10;;;4.90;99.90;226.50;231333.00;;;;4993896;28;20674;-74
2022/01/24 06:32:46;;;;;;;0.10;0.10;;;4.90;99.90;226.50;231333.00;;;;5008099;28;20224;-77
2022/01/24 06:35:18;;;;;;;0.10;0.10;;;5.00;99.90;226.50;231333.00;;;;4992640;28;20196;-77
2022/01/24 06:37:48;;;;;;;0.10;0.10;;;4.90;99.90;226.50;231333.00;;;;4991940;28;20223;-77
2022/01/24 06:40:18;;;;;;;0.00;0.00;;;5.00;99.90;226.50;231333.00;;;;4993152;28;20211;-76
2022/01/24 06:42:49;;;;;;;0.10;0.10;;;5.00;99.90;226.50;231333.00;;;;4993063;28;20212;-77
2022/01/24 06:45:21;;;;;;;0.10;0.10;;;5.00;99.90;226.50;231333.00;;;;4992242;28;20200;-74
2022/01/24 06:47:51;;;;;;;0.10;0.10;;;4.90;99.90;226.50;231333.00;;;;4992284;28;20216;-74
2022/01/24 06:50:26;;;;;;;0.10;0.10;;;4.80;99.90;226.50;231333.00;;;;4991755;28;20662;-74
2022/01/24 06:52:56;;;;;;;0.10;0.10;;;4.90;99.90;226.50;231333.00;;;;4991485;28;20219;-74
2022/01/24 06:55:26;;;;;;;0.10;0.10;;;4.90;99.90;226.50;231333.00;;;;5006708;28;20788;-77
2022/01/24 06:57:57;;;;;;;0.10;0.10;;;5.00;99.90;226.50;231333.00;;;;4992145;28;20212;-77
2022/01/24 07:00:30;;;;;;;0.10;0.10;;;5.00;99.90;226.50;231333.00;;;;4992310;28;20204;-74
2022/01/24 07:03:02;;;;;;;0.10;0.10;;;5.00;99.90;226.50;231333.00;;;;4992347;28;20196;-74
2022/01/24 07:05:34;;;;;;;0.10;0.10;;;4.90;99.90;226.50;231333.00;;;;4989305;28;20197;-74
2022/01/24 07:08:04;;;;;;;0.10;0.10;;;4.90;99.90;226.50;231333.00;;;;4991213;28;20224;-75
2022/01/24 07:10:34;;;;;;;0.10;0.10;;;4.90;99.90;226.50;231333.00;;;;4990147;28;20201;-74
2022/01/24 07:13:04;;;;;;;0.05;0.05;;;4.90;99.90;226.50;231333.00;;;;4990336;28;20228;-74
2022/01/24 07:15:44;;;;;;;0.10;0.10;;;4.80;99.90;226.50;231333.00;;;;4991737;28;20235;-74
2022/01/24 07:21:01;;;;;;;0.10;0.10;;;4.80;99.90;226.50;231333.00;;;;4990589;28;20223;-75
2022/01/24 07:23:31;;;;;;;0.10;0.10;;;4.90;99.90;226.50;231333.00;;;;5005496;28;20209;-75
2022/01/24 07:26:04;;;;;;;0.10;0.10;;;5.00;99.90;226.50;231333.00;;;;5005927;28;20791;-74
2022/01/24 07:28:34;;;;;;;0.10;0.10;;;4.90;99.90;226.50;231333.00;;;;4996339;28;20292;-74
2022/01/24 07:31:06;;;;;;;0.10;0.10;;;4.90;99.90;226.50;231333.00;;;;4990069;28;20590;-74
2022/01/24 07:33:36;;;;;;;0.10;0.10;;;4.80;99.90;226.50;231333.00;;;;4990761;28;20239;-74
2022/01/24 07:36:07;;;;;;;0.10;0.10;;;4.80;99.90;226.50;231333.00;;;;5005034;28;20212;-74
2022/01/24 07:38:37;;;;;;;0.10;0.10;;;4.80;99.90;226.50;231333.00;;;;4990183;28;20197;-74
2022/01/24 07:41:07;;;;;;;0.10;0.10;;;4.70;99.90;226.50;231333.00;;;;4990654;28;20200;-74
2022/01/24 07:43:38;;;;;;;0.10;0.10;;;4.70;99.90;226.50;231333.00;;;;4991443;28;20211;-74
2022/01/24 07:46:09;;;;;;;0.10;0.10;;;4.70;99.90;226.50;231333.00;;;;4989845;28;20594;-74
2022/01/24 07:48:39;;;;;;;0.10;0.10;;;4.70;99.90;226.50;231333.00;;;;4991445;28;20204;-74
2022/01/24 07:51:10;;;;;;;0.10;0.10;;;4.70;99.90;226.50;231333.00;;;;4990502;28;20263;-74
2022/01/24 07:53:40;;;;;;;0.10;0.10;;;4.80;99.90;226.50;231333.00;;;;4988747;28;20697;-74
2022/01/24 07:56:15;;;;;;;0.10;0.10;;;4.70;99.90;226.50;231333.00;;;;4991051;28;20967;-75
2022/01/24 07:58:45;;;;;;;0.10;0.10;;;4.70;99.90;226.50;231333.00;;;;4988259;28;20192;-74
2022/01/24 08:01:19;;;;;;;0.10;0.10;;;4.70;99.90;226.50;231333.00;;;;4990753;28;20208;-74
2022/01/24 08:03:51;;;;;;;0.10;0.10;;;4.70;99.90;226.50;231333.00;;;;4992208;28;20295;-74
2022/01/24 08:06:23;;;;;;;0.10;0.10;;;4.70;99.90;226.50;231333.00;;;;4993025;28;20602;-74
2022/01/24 08:08:53;;;;;;;0.10;0.10;;;4.70;99.90;226.50;231333.00;;;;4993117;28;20585;-75
2022/01/24 08:11:24;;;;;;;0.10;0.10;;;4.70;99.90;226.50;231333.00;;;;4988553;28;20189;-74
2022/01/24 08:13:55;;;;;;;0.10;0.10;;;4.70;99.90;226.50;231333.00;;;;4998799;28;20224;-74
2022/01/24 08:16:28;;;;;;;0.10;0.10;;;4.70;99.90;226.50;231333.00;;;;4990415;28;20724;-74
2022/01/24 08:19:04;;;;;;;0.10;0.10;;;4.80;99.90;226.50;231333.00;;;;5005193;28;20200;-75
2022/01/24 08:21:34;;;;;;;0.10;0.10;;;4.70;99.90;226.50;231333.00;;;;4989510;28;20212;-74
2022/01/24 08:24:06;;;;;;;0.10;0.10;;;4.80;99.90;226.50;231333.00;;;;4990158;28;20208;-75
2022/01/24 08:26:36;;;;;;;0.10;0.10;;;4.80;99.90;226.50;231333.00;;;;4989559;28;20243;-75
2022/01/24 08:29:07;;;;;;;0.03;0.03;;;4.90;99.90;226.50;231333.00;;;;4987600;28;20254;-75
2022/01/24 08:31:40;;;;;;;0.10;0.10;;;4.90;99.90;226.50;231333.00;;;;4990155;28;20196;-75
2022/01/24 08:34:11;;;;;;;0.10;0.10;;;4.80;99.90;226.50;231333.00;;;;4989237;28;20282;-75
2022/01/24 08:36:41;;;;;;;0.10;0.10;;;4.90;99.90;226.50;231333.00;;;;5023807;23;20602;-74
2022/01/24 08:39:12;;;;;;;0.10;0.10;;;5.00;99.90;226.50;231333.00;;;;4985390;28;20203;-73
2022/01/24 08:41:44;;;;;;;0.10;0.10;;;5.00;99.90;226.50;231333.00;;;;4981769;28;20200;-74
2022/01/24 08:44:21;;;;;;;0.10;0.10;;;5.00;99.90;226.50;231333.00;;;;4984225;28;20209;-73
2022/01/24 08:46:52;;;;;;;0.10;0.10;;;5.00;99.90;226.50;231333.00;;;;4981823;28;20315;-74
2022/01/24 08:49:23;;;;;;;0.10;0.10;;;5.10;99.90;226.50;231333.00;;;;4982160;28;20197;-73
2022/01/24 08:51:54;;;;;;;0.10;0.10;;;5.10;99.90;226.50;231333.00;;;;4977329;28;20534;-74
2022/01/24 08:54:36;;;;;;;0.10;0.10;;;5.20;99.90;226.50;231333.00;;;;4978189;28;20600;-73
2022/01/24 08:57:07;;;;;;;0.10;0.10;;;5.10;99.90;226.50;231333.00;;;;4981387;28;20270;-73
2022/01/24 08:59:40;;;;;;;0.10;0.10;;;5.20;99.90;226.50;231333.00;;;;4981181;28;20208;-73
2022/01/24 09:02:13;;;;;;;0.10;0.10;;;5.10;99.90;226.50;231333.00;;;;4980342;28;20205;-74
2022/01/24 09:04:44;;;;;;;0.10;0.10;;;5.10;99.90;226.50;231333.00;;;;4980466;28;20210;-74
2022/01/24 09:07:20;;;;;;;0.10;0.10;;;5.10;99.90;226.50;231333.00;;;;4980245;28;20315;-73
2022/01/24 09:09:50;;;;;;;0.10;0.10;;;5.20;99.90;226.50;231333.00;;;;4979524;28;21788;-74
2022/01/24 09:12:20;;;;;;;0.10;0.10;;;5.30;99.90;226.50;231333.00;;;;4980735;28;20235;-74
2022/01/24 09:14:52;;;;;;;0.10;0.10;;;5.30;99.90;226.50;231333.00;;;;4978540;28;20627;-74
2022/01/24 09:17:23;;;;;;;0.10;0.10;;;5.20;99.90;226.50;231333.00;;;;4979957;28;20724;-73
2022/01/24 09:19:53;;;;;;;0.10;0.10;;;5.10;99.90;226.50;231333.00;;;;4979786;28;20201;-73
2022/01/24 09:22:42;;;;;;;0.00;0.00;;;5.10;99.90;226.50;231333.00;;;;4968262;28;20193;-74
2022/01/24 09:25:15;;;;;;;0.10;0.10;;;5.20;99.90;226.50;231333.00;;;;4981171;28;20193;-74
2022/01/24 09:27:46;;;;;;;0.00;0.00;;;5.20;99.90;226.50;231333.00;;;;4980100;28;20710;-74
2022/01/24 09:30:22;;;;;;;0.10;0.10;;;5.20;99.90;226.50;231333.00;;;;4981551;28;20674;-73
2022/01/24 09:32:54;;;;;;;0.10;0.10;;;5.20;99.90;226.50;231333.00;;;;4980159;28;20262;-73
2022/01/24 09:35:27;;;;;;;0.10;0.10;;;5.20;99.90;226.50;231333.00;;;;4979868;28;20189;-73
2022/01/24 09:37:57;;;;;;;0.10;0.10;;;5.20;99.90;226.50;231333.00;;;;4978355;28;20224;-74
2022/01/24 09:40:28;;;;;;;0.10;0.10;;;5.30;99.90;226.50;231333.00;;;;4979993;28;20330;-74
2022/01/24 09:42:58;;;;;;;0.10;0.10;;;5.20;99.90;226.50;231333.00;;;;4977242;28;20205;-74
2022/01/24 09:45:29;;;;;;;0.10;0.10;;;5.30;99.90;226.50;231333.00;;;;4975413;28;20201;-74
2022/01/24 09:48:02;;;;;;;0.00;0.00;;;5.30;99.90;226.50;231333.00;;;;4979504;28;20307;-73
2022/01/24 09:50:33;;;;;;;0.10;0.10;;;5.30;99.90;226.50;231333.00;;;;4971204;28;20263;-74
2022/01/24 09:53:04;;;;;;;0.10;0.10;;;5.40;99.90;226.50;231333.00;;;;4983217;28;20196;-73
2022/01/24 09:55:35;;;;;;;0.10;0.10;;;5.40;99.90;226.50;231333.00;;;;4984143;28;20188;-74
2022/01/24 09:58:05;;;;;;;0.10;0.10;;;5.40;99.90;226.50;231333.00;;;;4980510;28;20828;-74
2022/01/24 10:00:36;;;;;;;0.10;0.10;;;5.40;99.90;226.50;231333.00;;;;4983959;28;20192;-73
2022/01/24 10:03:12;;;;;;;0.10;0.10;;;5.40;99.90;226.50;231333.00;;;;4983611;28;20197;-73
2022/01/24 10:06:02;;;;;;;0.10;0.10;;;5.50;99.90;226.50;231333.00;;;;4965759;28;20212;-74
2022/01/24 10:08:35;;;;;;;0.10;0.10;;;5.50;99.90;226.50;231333.00;;;;4983280;28;20236;-73
2022/01/24 10:11:08;;;;;;;0.10;0.10;;;5.50;99.90;226.50;231333.00;;;;4983247;28;20196;-74
2022/01/24 10:16:36;;;;;;;0.10;0.10;;;5.50;99.90;226.50;231333.00;;;;4980830;28;20205;-74
2022/01/24 10:19:14;;;;;;;0.10;0.10;;;5.60;99.90;226.50;231333.00;;;;4981913;28;20220;-74
2022/01/24 10:22:05;;;;;;;0.10;0.10;;;5.60;99.90;226.50;231333.00;;;;4983583;28;20192;-74
2022/01/24 10:24:40;;;;;;;0.10;0.10;;;5.60;99.90;226.50;231333.00;;;;4983808;28;20192;-74
2022/01/24 10:27:15;;;;;;;0.10;0.10;;;5.60;99.90;226.50;231333.00;;;;4972324;28;20216;-74
2022/01/24 10:29:53;;;;;;;0.10;0.10;;;5.70;99.90;226.50;231333.00;;;;4983046;28;20197;-74
2022/01/24 10:32:36;;;;;;;0.10;0.10;;;5.70;99.90;226.50;231333.00;;;;4980829;28;20201;-74
2022/01/24 10:35:34;;;;;;;0.10;0.10;;;5.70;99.90;226.50;231333.00;;;;4969675;28;20231;-72
2022/01/24 10:38:28;;;;;;;0.10;0.10;;;5.70;99.90;226.50;231333.00;;;;4982640;28;20814;-73
2022/01/24 10:41:09;;;;;;;0.10;0.10;;;5.70;99.90;226.50;231333.00;;;;4980099;28;20211;-74
2022/01/24 10:43:41;;;;;;;0.10;0.10;;;5.70;99.90;226.50;231333.00;;;;4982824;28;20212;-73
2022/01/24 10:46:13;;;;;;;0.10;0.10;;;5.80;99.90;226.50;231333.00;;;;4982467;28;20295;-73
2022/01/24 10:48:47;;;;;;;0.05;0.05;;;5.80;99.90;226.50;231333.00;;;;4983486;28;20267;-72
2022/01/24 10:51:23;;;;;;;0.10;0.10;;;5.80;99.90;226.50;231333.00;;;;4982970;28;20204;-72
2022/01/24 10:53:56;;;;;;;0.10;0.10;;;5.80;99.90;226.50;231333.00;;;;4982271;28;20768;-73
2022/01/24 10:56:32;;;;;;;0.10;0.10;;;5.80;99.90;226.50;231333.00;;;;4983716;28;20209;-73
2022/01/24 10:59:26;;;;;;;0.10;0.10;;;5.80;99.90;226.50;231333.00;;;;4980935;28;20212;-72
2022/01/24 11:02:01;;;;;;;0.10;0.10;;;5.80;99.90;226.50;231333.00;;;;4981782;28;20205;-73
2022/01/24 11:04:33;;;;;;;0.10;0.10;;;5.80;99.90;226.50;231333.00;;;;4983405;28;20291;-73
2022/01/24 11:07:07;;;;;;;0.00;0.00;;;5.80;99.90;226.50;231333.00;;;;4984388;28;20663;-73
2022/01/24 11:09:41;;;;;;;0.10;0.10;;;5.80;99.90;226.50;231333.00;;;;4983222;28;20558;-73
2022/01/24 11:12:15;;;;;;;0.10;0.10;;;5.90;99.90;226.50;231333.00;;;;4982361;28;20286;-72
2022/01/24 11:14:47;;;;;;;0.10;0.10;;;5.90;99.90;226.50;231333.00;;;;4985006;28;20714;-73
2022/01/24 11:17:23;;;;;;;0.10;0.10;;;5.90;99.90;226.50;231333.00;;;;4984117;28;20231;-74
2022/01/24 11:20:00;;;;;;;0.10;0.10;;;5.90;99.90;226.50;231333.00;;;;4988545;28;20197;-72
2022/01/24 11:22:35;;;;;;;0.10;0.10;;;5.90;99.90;226.50;231333.00;;;;4989935;28;20195;-72
2022/01/24 11:25:08;;;;;;;0.10;0.10;;;6.00;99.90;226.50;231333.00;;;;4983334;28;20328;-73
2022/01/24 11:27:43;;;;;;;0.10;0.10;;;6.00;99.90;226.50;231333.00;;;;4982505;28;20211;-72
2022/01/24 11:30:18;;;;;;;0.10;0.10;;;6.00;99.90;226.50;231333.00;;;;4983409;28;20200;-73
2022/01/24 11:32:55;;;;;;;0.10;0.10;;;6.00;99.90;226.50;231333.00;;;;4987949;28;20219;-72
2022/01/24 11:35:38;;;;;;;0.10;0.10;;;6.00;99.90;226.50;231333.00;;;;4988270;28;20232;-72
2022/01/24 11:38:29;;;;;;;0.10;0.10;;;6.00;99.90;226.50;231333.00;;;;4981214;28;20234;-73
2022/01/24 11:41:03;;;;;;;0.10;0.10;;;6.10;99.90;226.50;231333.00;;;;4980043;28;20806;-73
2022/01/24 11:43:37;;;;;;;0.10;0.10;;;6.20;99.90;226.50;231333.00;;;;4981733;28;20196;-73
2022/01/24 11:46:34;;;;;;;0.10;0.10;;;6.10;99.90;226.50;231333.00;;;;4982349;28;20209;-73
2022/01/24 11:49:08;;;;;;;0.10;0.10;;;6.10;99.90;226.50;231333.00;;;;4981372;28;20228;-73
2022/01/24 11:51:40;;;;;;;0.08;0.08;;;6.00;99.90;226.50;231333.00;;;;4983154;28;20197;-73
2022/01/24 11:54:43;;;;;;;0.10;0.10;;;6.10;99.90;226.50;231333.00;;;;4982835;28;20201;-73
2022/01/24 11:57:27;;;;;;;0.10;0.10;;;6.20;99.90;226.50;231333.00;;;;4982319;28;20216;-74
2022/01/24 12:00:22;;;;;;;0.10;0.10;;;6.20;99.90;226.50;231333.00;;;;4984195;28;20733;-73
2022/01/24 12:02:56;;;;;;;0.10;0.10;;;6.10;99.90;226.50;231333.00;;;;4983420;28;20192;-73
2022/01/24 12:05:28;;;;;;;0.10;0.10;;;6.20;99.90;226.50;231333.00;;;;4983594;28;20201;-74
2022/01/24 12:08:02;;;;;;;0.10;0.10;;;6.10;99.90;226.50;231333.00;;;;4982695;28;20216;-73
2022/01/24 12:10:58;;;;;;;0.10;0.10;;;6.10;99.90;226.50;231333.00;;;;4982007;28;20208;-73
2022/01/24 12:13:35;;;;;;;0.10;0.10;;;6.00;99.90;226.50;231333.00;;;;4982743;28;20736;-73
2022/01/24 12:16:10;;;;;;;0.10;0.10;;;6.00;99.90;226.50;231333.00;;;;4982614;28;20224;-73